createdAt,value
2023-11-12T00:00:59.548Z,18.52
2023-11-12T00:03:28.851Z,17.67
2023-11-12T00:05:56.579Z,16.42
2023-11-12T00:08:24.360Z,16.08
2023-11-12T00:10:53.586Z,13.88
2023-11-12T00:13:21.288Z,16.02
2023-11-12T00:15:49.061Z,13.25
2023-11-12T00:18:17.465Z,15.13
2023-11-12T00:20:46.555Z,16.42
2023-11-12T00:23:14.576Z,15.65
2023-11-12T00:25:42.389Z,20.15
2023-11-12T00:28:10.235Z,15.18
2023-11-12T00:30:37.880Z,16.50
2023-11-12T00:33:07.386Z,17.60
2023-11-12T00:35:35.070Z,19.20
2023-11-12T00:38:04.263Z,19.38
2023-11-12T00:40:33.452Z,17.58
2023-11-12T00:43:01.143Z,19.52
2023-11-12T00:45:32.617Z,18.23
2023-11-12T00:48:01.506Z,23.20
2023-11-12T00:50:29.254Z,19.90
2023-11-12T00:52:57.162Z,21.95
2023-11-12T00:55:26.171Z,23.35
2023-11-12T00:57:53.953Z,19.52
2023-11-12T01:00:22.492Z,23.42
2023-11-12T01:02:50.489Z,22.05
2023-11-12T01:05:18.658Z,23.15
2023-11-12T01:07:46.341Z,21.98
2023-11-12T01:10:14.279Z,24.45
2023-11-12T01:12:43.525Z,22.20
2023-11-12T01:15:12.749Z,22.02
2023-11-12T01:17:40.631Z,23.92
2023-11-12T01:20:11.313Z,20.92
2023-11-12T01:22:39.243Z,22.20
2023-11-12T01:25:07.429Z,22.52
2023-11-12T01:27:35.928Z,21.40
2023-11-12T01:30:06.782Z,17.85
2023-11-12T01:32:34.957Z,21.10
2023-11-12T01:35:04.156Z,21.67
2023-11-12T01:37:33.181Z,21.05
2023-11-12T01:40:00.983Z,22.55
2023-11-12T01:42:28.827Z,23.25
2023-11-12T01:44:56.489Z,23.98
2023-11-12T01:47:27.034Z,19.90
2023-11-12T01:49:55.078Z,19.63
2023-11-12T01:52:24.200Z,18.08
2023-11-12T01:54:51.846Z,16.55
2023-11-12T01:57:19.813Z,20.15
2023-11-12T01:59:48.546Z,19.65
2023-11-12T02:02:17.725Z,17.88
2023-11-12T02:04:47.286Z,18.02
2023-11-12T02:07:16.484Z,19.92
2023-11-12T02:09:44.420Z,19.48
2023-11-12T02:12:14.457Z,18.70
2023-11-12T02:14:42.705Z,16.45
2023-11-12T02:17:10.428Z,14.23
2023-11-12T02:19:38.062Z,17.40
2023-11-12T02:22:07.587Z,19.60
2023-11-12T02:24:36.820Z,17.08
2023-11-12T02:27:05.208Z,18.42
2023-11-12T02:29:33.141Z,18.40
2023-11-12T02:32:01.371Z,19.08
2023-11-12T02:34:28.965Z,19.85
2023-11-12T02:36:56.540Z,18.33
2023-11-12T02:39:24.688Z,20.88
2023-11-12T02:41:54.754Z,22.02
2023-11-12T02:44:22.640Z,19.92
2023-11-12T02:46:50.600Z,22.40
2023-11-12T02:49:29.488Z,22.05
2023-11-12T02:51:57.207Z,22.90
2023-11-12T02:54:24.925Z,24.25
2023-11-12T02:56:54.269Z,23.08
2023-11-12T02:59:22.325Z,28.73
2023-11-12T03:01:51.378Z,22.98
2023-11-12T03:04:19.510Z,24.77
2023-11-12T03:06:49.297Z,23.52
2023-11-12T03:09:17.040Z,24.85
2023-11-12T03:11:45.683Z,22.63
2023-11-12T03:14:14.700Z,21.65
2023-11-12T03:16:42.504Z,24.88
2023-11-12T03:19:12.110Z,23.50
2023-11-12T03:21:40.901Z,24.88
2023-11-12T03:24:09.885Z,25.15
2023-11-12T03:26:38.124Z,25.58
2023-11-12T03:29:06.262Z,28.13
2023-11-12T03:31:36.799Z,27.33
2023-11-12T03:34:04.637Z,26.05
2023-11-12T03:36:32.255Z,25.80
2023-11-12T03:38:59.915Z,26.88
2023-11-12T03:41:27.724Z,26.10
2023-11-12T03:43:55.930Z,27.90
2023-11-12T03:46:23.700Z,33.05
2023-11-12T03:48:52.796Z,27.40
2023-11-12T03:51:20.503Z,29.02
2023-11-12T03:53:48.094Z,34.15
2023-11-12T03:56:15.636Z,24.77
2023-11-12T03:58:43.208Z,28.90
2023-11-12T04:01:11.381Z,35.38
2023-11-12T04:03:39.550Z,27.08
2023-11-12T04:06:09.574Z,24.98
2023-11-12T04:08:37.548Z,23.33
2023-11-12T04:11:05.852Z,27.25
2023-11-12T04:13:33.520Z,25.85
2023-11-12T04:16:01.935Z,25.45
2023-11-12T04:18:29.666Z,27.38
2023-11-12T04:20:57.292Z,21.98
2023-11-12T04:23:26.783Z,28.63
2023-11-12T04:25:54.870Z,27.33
2023-11-12T04:28:27.026Z,26.58
2023-11-12T04:30:55.312Z,26.70
2023-11-12T04:33:23.003Z,24.23
2023-11-12T04:35:53.337Z,26.75
2023-11-12T04:38:21.593Z,23.42
2023-11-12T04:40:53.844Z,25.90
2023-11-12T04:43:21.728Z,24.48
2023-11-12T04:45:49.414Z,26.33
2023-11-12T04:48:17.276Z,24.67
2023-11-12T04:50:44.926Z,29.10
2023-11-12T04:53:13.075Z,20.77
2023-11-12T04:55:41.355Z,22.13
2023-11-12T04:58:10.699Z,27.25
2023-11-12T05:00:41.463Z,20.52
2023-11-12T05:03:09.341Z,25.20
2023-11-12T05:05:37.322Z,24.60
2023-11-12T05:08:05.504Z,26.42
2023-11-12T05:10:44.656Z,27.70
2023-11-12T05:13:15.298Z,26.27
2023-11-12T05:15:43.136Z,23.63
2023-11-12T05:18:11.674Z,24.63
2023-11-12T05:20:39.443Z,26.60
2023-11-12T05:23:07.510Z,24.67
2023-11-12T05:25:35.164Z,29.10
2023-11-12T05:28:02.876Z,28.63
2023-11-12T05:30:31.922Z,22.73
2023-11-12T05:33:00.666Z,23.75
2023-11-12T05:35:28.649Z,25.35
2023-11-12T05:37:56.462Z,32.28
2023-11-12T05:40:24.127Z,32.13
2023-11-12T05:42:52.197Z,32.03
2023-11-12T05:45:20.474Z,26.55
2023-11-12T05:47:49.593Z,31.42
2023-11-12T05:50:17.306Z,26.00
2023-11-12T05:52:44.994Z,26.50
2023-11-12T05:55:12.757Z,26.13
2023-11-12T05:57:41.643Z,28.75
2023-11-12T06:00:11.943Z,30.65
2023-11-12T06:02:40.357Z,25.38
2023-11-12T06:05:10.263Z,26.30
2023-11-12T06:07:38.033Z,22.83
2023-11-12T06:10:05.952Z,27.45
2023-11-12T06:12:33.763Z,24.30
2023-11-12T06:15:01.568Z,27.90
2023-11-12T06:17:29.525Z,24.10
2023-11-12T06:19:57.177Z,25.77
2023-11-12T06:22:26.286Z,27.80
2023-11-12T06:24:54.011Z,27.25
2023-11-12T06:27:22.706Z,28.15
2023-11-12T06:29:51.619Z,30.23
2023-11-12T06:32:19.296Z,28.52
2023-11-12T06:34:47.942Z,34.72
2023-11-12T06:37:16.569Z,26.50
2023-11-12T06:39:45.752Z,22.73
2023-11-12T06:42:13.639Z,23.27
2023-11-12T06:44:41.475Z,29.48
2023-11-12T06:47:09.120Z,21.20
2023-11-12T06:49:36.734Z,28.85
2023-11-12T06:52:04.691Z,22.10
2023-11-12T06:54:32.416Z,21.73
2023-11-12T06:57:01.937Z,21.25
2023-11-12T06:59:29.834Z,24.63
2023-11-12T07:01:57.510Z,25.08
2023-11-12T07:04:25.418Z,22.85
2023-11-12T07:07:05.538Z,19.52
2023-11-12T07:09:37.582Z,21.80
2023-11-12T07:12:07.838Z,21.08
2023-11-12T07:14:35.769Z,21.58
2023-11-12T07:17:04.133Z,18.52
2023-11-12T07:19:31.786Z,16.63
2023-11-12T07:22:00.287Z,18.95
2023-11-12T07:24:28.016Z,16.73
2023-11-12T07:26:55.754Z,17.60
2023-11-12T07:29:25.019Z,19.42
2023-11-12T07:31:52.719Z,18.63
2023-11-12T07:34:20.294Z,22.90
2023-11-12T07:36:48.681Z,18.27
2023-11-12T07:39:17.268Z,17.83
2023-11-12T07:41:45.447Z,17.80
2023-11-12T07:44:21.108Z,19.08
2023-11-12T07:46:50.743Z,18.50
2023-11-12T07:49:18.476Z,18.70
2023-11-12T07:51:49.966Z,17.30
2023-11-12T07:54:17.810Z,18.20
2023-11-12T07:56:45.695Z,18.23
2023-11-12T07:59:13.418Z,18.55
2023-11-12T08:01:41.710Z,19.95
2023-11-12T08:04:11.530Z,19.30
2023-11-12T08:06:39.202Z,21.05
2023-11-12T08:09:07.874Z,19.77
2023-11-12T08:11:40.207Z,17.05
2023-11-12T08:14:10.092Z,22.80
2023-11-12T08:16:38.388Z,21.92
2023-11-12T08:19:07.062Z,20.80
2023-11-12T08:21:36.336Z,21.15
2023-11-12T08:24:05.104Z,19.58
2023-11-12T08:26:33.725Z,19.55
2023-11-12T08:29:02.210Z,20.63
2023-11-12T08:31:31.709Z,22.63
2023-11-12T08:34:01.012Z,19.95
2023-11-12T08:36:30.263Z,22.85
2023-11-12T08:38:59.734Z,23.30
2023-11-12T08:41:27.682Z,26.55
2023-11-12T08:43:55.299Z,25.15
2023-11-12T08:46:24.228Z,30.08
2023-11-12T08:48:52.545Z,26.60
2023-11-12T08:51:20.797Z,25.75
2023-11-12T08:53:48.401Z,29.08
2023-11-12T08:56:17.611Z,28.75
2023-11-12T08:58:45.456Z,26.65
2023-11-12T09:01:13.277Z,25.38
2023-11-12T09:03:41.501Z,29.83
2023-11-12T09:06:09.455Z,26.20
2023-11-12T09:08:37.134Z,30.98
2023-11-12T09:11:04.895Z,26.15
2023-11-12T09:13:34.029Z,25.92
2023-11-12T09:16:01.750Z,27.08
2023-11-12T09:18:30.108Z,25.95
2023-11-12T09:20:58.130Z,28.25
2023-11-12T09:23:25.433Z,24.92
2023-11-12T09:25:53.122Z,27.20
2023-11-12T09:28:20.900Z,25.90
2023-11-12T09:30:57.860Z,27.33
2023-11-12T09:33:28.956Z,28.25
2023-11-12T09:35:56.698Z,24.02
2023-11-12T09:38:24.417Z,24.10
2023-11-12T09:40:54.050Z,25.20
2023-11-12T09:43:26.087Z,21.88
2023-11-12T09:45:57.519Z,24.60
2023-11-12T09:48:36.679Z,23.92
2023-11-12T09:51:06.464Z,26.10
2023-11-12T09:53:35.335Z,27.40
2023-11-12T09:56:09.775Z,29.83
2023-11-12T09:58:38.615Z,27.25
2023-11-12T10:01:09.115Z,34.70
2023-11-12T10:03:37.341Z,27.58
2023-11-12T10:06:06.952Z,29.05
2023-11-12T10:08:35.587Z,27.88
2023-11-12T10:11:15.120Z,26.85
2023-11-12T10:13:43.675Z,27.30
2023-11-12T10:16:30.431Z,35.28
2023-11-12T10:19:09.798Z,29.42
2023-11-12T10:21:37.773Z,29.83
2023-11-12T10:24:06.796Z,35.55
2023-11-12T10:26:36.047Z,32.97
2023-11-12T10:29:04.407Z,31.98
2023-11-12T10:31:40.437Z,30.30
2023-11-12T10:34:10.095Z,28.50
2023-11-12T10:36:38.528Z,26.35
2023-11-12T10:39:11.247Z,33.85
2023-11-12T10:41:40.359Z,31.98
2023-11-12T10:44:08.961Z,28.20
2023-11-12T10:46:41.226Z,29.00
2023-11-12T10:49:11.791Z,28.15
2023-11-12T10:51:40.932Z,29.27
2023-11-12T10:54:12.656Z,29.83
2023-11-12T10:56:40.728Z,25.63
2023-11-12T10:59:09.699Z,23.65
2023-11-12T11:01:38.436Z,28.60
2023-11-12T11:04:07.541Z,28.52
2023-11-12T11:06:37.247Z,23.95
2023-11-12T11:09:06.048Z,25.58
2023-11-12T11:11:34.368Z,24.95
2023-11-12T11:14:17.212Z,24.10
2023-11-12T11:16:49.235Z,26.33
2023-11-12T11:19:17.135Z,25.05
2023-11-12T11:22:10.472Z,24.30
2023-11-12T11:24:45.005Z,27.60
2023-11-12T11:27:13.858Z,26.67
2023-11-12T11:29:57.101Z,26.15
2023-11-12T11:32:24.958Z,25.52
2023-11-12T11:34:53.261Z,29.15
2023-11-12T11:37:23.984Z,28.30
2023-11-12T11:39:53.252Z,23.35
2023-11-12T11:42:21.273Z,24.80
2023-11-12T11:44:50.661Z,22.65
2023-11-12T11:47:19.597Z,23.40
2023-11-12T11:49:48.262Z,22.65
2023-11-12T11:52:20.039Z,25.02
2023-11-12T11:54:54.927Z,25.80
2023-11-12T11:57:24.996Z,24.02
2023-11-12T11:59:53.138Z,26.13
2023-11-12T12:02:22.645Z,22.13
2023-11-12T12:04:51.736Z,22.80
2023-11-12T12:07:23.489Z,19.92
2023-11-12T12:09:53.702Z,18.20
2023-11-12T12:12:25.517Z,21.42
2023-11-12T12:14:56.267Z,20.48
2023-11-12T12:17:24.874Z,18.67
2023-11-12T12:19:52.884Z,18.23
2023-11-12T12:22:24.207Z,18.90
2023-11-12T12:24:56.950Z,18.15
2023-11-12T12:27:25.203Z,20.70
2023-11-12T12:29:54.144Z,18.52
2023-11-12T12:32:22.866Z,25.67
2023-11-12T12:34:57.488Z,19.75
2023-11-12T12:37:27.248Z,20.73
2023-11-12T12:40:02.586Z,20.40
2023-11-12T12:42:32.498Z,20.42
2023-11-12T12:45:01.597Z,20.48
2023-11-12T12:47:35.142Z,20.08
2023-11-12T12:50:17.136Z,22.45
2023-11-12T12:52:46.775Z,19.08
2023-11-12T12:55:18.364Z,18.20
2023-11-12T12:57:50.964Z,22.33
2023-11-12T13:00:21.622Z,24.23
2023-11-12T13:02:50.829Z,20.77
2023-11-12T13:05:21.397Z,22.90
2023-11-12T13:07:50.423Z,20.55
2023-11-12T13:10:21.831Z,20.67
2023-11-12T13:12:51.686Z,21.90
2023-11-12T13:15:19.763Z,20.15
2023-11-12T13:17:47.751Z,21.73
2023-11-12T13:20:15.734Z,20.38
2023-11-12T13:22:43.791Z,19.70
2023-11-12T13:25:13.406Z,24.05
2023-11-12T13:27:45.691Z,22.45
2023-11-12T13:30:13.964Z,21.50
2023-11-12T13:32:43.026Z,19.90
2023-11-12T13:35:12.596Z,30.13
2023-11-12T13:37:41.700Z,24.65
2023-11-12T13:40:15.292Z,17.85
2023-11-12T13:42:44.875Z,19.48
2023-11-12T13:45:13.288Z,21.33
2023-11-12T13:47:43.533Z,23.35
2023-11-12T13:50:15.578Z,22.70
2023-11-12T13:52:45.560Z,20.92
2023-11-12T13:55:18.987Z,20.75
2023-11-12T13:57:49.467Z,22.00
2023-11-12T14:00:18.972Z,21.38
2023-11-12T14:02:47.610Z,23.50
2023-11-12T14:05:17.924Z,19.48
2023-11-12T14:07:45.936Z,23.80
2023-11-12T14:10:19.455Z,18.45
2023-11-12T14:12:54.335Z,26.75
2023-11-12T14:15:23.557Z,22.95
2023-11-12T14:17:54.777Z,22.85
2023-11-12T14:20:26.830Z,22.67
2023-11-12T14:22:56.577Z,20.58
2023-11-12T14:25:27.139Z,27.17
2023-11-12T14:27:56.428Z,23.88
2023-11-12T14:30:24.192Z,26.38
2023-11-12T14:32:52.820Z,25.75
2023-11-12T14:35:23.603Z,24.30
2023-11-12T14:37:51.381Z,22.20
2023-11-12T14:40:19.677Z,24.75
2023-11-12T14:42:48.567Z,24.40
2023-11-12T14:45:25.786Z,24.45
2023-11-12T14:48:00.082Z,27.05
2023-11-12T14:50:27.943Z,23.98
2023-11-12T14:52:58.726Z,23.23
2023-11-12T14:55:29.036Z,28.60
2023-11-12T14:57:57.668Z,26.52
2023-11-12T15:00:31.532Z,21.13
2023-11-12T15:03:00.404Z,26.05
2023-11-12T15:05:29.181Z,28.27
2023-11-12T15:07:56.912Z,29.38
2023-11-12T15:10:24.950Z,30.42
2023-11-12T15:12:53.580Z,24.92
2023-11-12T15:15:23.034Z,29.30
2023-11-12T15:17:53.853Z,26.52
2023-11-12T15:20:22.150Z,26.63
2023-11-12T15:22:51.734Z,28.58
2023-11-12T15:25:20.531Z,28.60
2023-11-12T15:27:50.569Z,29.83
2023-11-12T15:30:20.425Z,31.17
2023-11-12T15:32:49.198Z,28.02
2023-11-12T15:35:19.742Z,37.03
2023-11-12T15:37:47.533Z,30.83
2023-11-12T15:40:23.899Z,30.13
2023-11-12T15:42:53.354Z,33.58
2023-11-12T15:45:24.462Z,33.53
2023-11-12T15:47:52.451Z,31.23
2023-11-12T15:50:23.762Z,31.20
2023-11-12T15:52:52.853Z,36.50
2023-11-12T15:55:21.280Z,34.30
2023-11-12T15:57:49.073Z,33.45
2023-11-12T16:00:19.123Z,31.95
2023-11-12T16:02:48.199Z,32.80
2023-11-12T16:05:16.235Z,29.42
2023-11-12T16:07:47.215Z,31.40
2023-11-12T16:10:17.656Z,35.13
2023-11-12T16:12:45.290Z,33.22
2023-11-12T16:15:16.345Z,29.90
2023-11-12T16:17:45.380Z,34.28
2023-11-12T16:20:14.362Z,30.20
2023-11-12T16:22:45.466Z,30.52
2023-11-12T16:25:15.112Z,31.35
2023-11-12T16:27:43.577Z,36.35
2023-11-12T16:30:12.831Z,30.77
2023-11-12T16:32:42.387Z,33.20
2023-11-12T16:35:12.000Z,31.20
2023-11-12T16:37:47.798Z,35.33
2023-11-12T16:40:17.575Z,35.90
2023-11-12T16:42:46.554Z,36.90
2023-11-12T16:45:14.905Z,34.80
2023-11-12T16:47:42.829Z,36.45
2023-11-12T16:50:13.151Z,34.60
2023-11-12T16:52:40.882Z,39.53
2023-11-12T16:55:09.253Z,35.55
2023-11-12T16:57:38.255Z,34.30
2023-11-12T17:00:08.258Z,35.78
2023-11-12T17:02:36.934Z,33.92
2023-11-12T17:05:05.638Z,36.90
2023-11-12T17:07:34.837Z,37.80
2023-11-12T17:10:02.943Z,37.65
2023-11-12T17:12:30.709Z,37.80
2023-11-12T17:15:01.338Z,41.88
2023-11-12T17:17:30.489Z,41.05
2023-11-12T17:19:59.697Z,36.40
2023-11-12T17:22:27.620Z,42.67
2023-11-12T17:24:55.220Z,45.55
2023-11-12T17:27:23.773Z,40.75
2023-11-12T17:29:52.219Z,40.65
2023-11-12T17:32:21.229Z,42.72
2023-11-12T17:34:48.893Z,40.63
2023-11-12T17:37:17.120Z,40.80
2023-11-12T17:39:44.812Z,44.92
2023-11-12T17:42:13.261Z,44.67
2023-11-12T17:44:41.627Z,39.95
2023-11-12T17:47:11.128Z,41.10
2023-11-12T17:49:40.646Z,40.10
2023-11-12T17:52:08.806Z,40.30
2023-11-12T17:54:38.583Z,41.60
2023-11-12T17:57:07.153Z,54.85
2023-11-12T17:59:35.445Z,48.58
2023-11-12T18:02:03.166Z,45.55
2023-11-12T18:04:31.317Z,48.67
2023-11-12T18:07:00.456Z,41.50
2023-11-12T18:09:28.579Z,46.10
2023-11-12T18:11:56.310Z,41.53
2023-11-12T18:14:23.975Z,44.05
2023-11-12T18:16:52.101Z,44.72
2023-11-12T18:19:20.063Z,40.03
2023-11-12T18:21:49.833Z,43.47
2023-11-12T18:24:19.651Z,44.17
2023-11-12T18:26:51.148Z,44.65
2023-11-12T18:29:18.876Z,43.05
2023-11-12T18:31:49.445Z,41.75
2023-11-12T18:34:17.684Z,43.90
2023-11-12T18:36:46.462Z,45.70
2023-11-12T18:39:14.314Z,45.13
2023-11-12T18:41:45.056Z,42.38
2023-11-12T18:44:14.764Z,44.67
2023-11-12T18:46:44.035Z,43.42
2023-11-12T18:49:12.107Z,43.88
2023-11-12T18:51:39.801Z,53.45
2023-11-12T18:54:08.119Z,51.60
2023-11-12T18:56:36.223Z,42.63
2023-11-12T18:59:09.797Z,39.63
2023-11-12T19:01:40.223Z,43.72
2023-11-12T19:04:08.806Z,37.03
2023-11-12T19:06:37.812Z,40.67
2023-11-12T19:09:06.065Z,37.38
2023-11-12T19:11:33.980Z,40.70
2023-11-12T19:14:02.873Z,41.80
2023-11-12T19:16:32.774Z,44.70
2023-11-12T19:19:00.658Z,38.75
2023-11-12T19:21:28.216Z,41.70
2023-11-12T19:23:56.544Z,38.25
2023-11-12T19:26:25.676Z,41.25
2023-11-12T19:28:53.315Z,35.63
2023-11-12T19:31:30.530Z,39.53
2023-11-12T19:34:02.758Z,41.28
2023-11-12T19:36:30.414Z,38.92
2023-11-12T19:38:58.029Z,42.53
2023-11-12T19:41:25.922Z,61.58
2023-11-12T19:43:54.562Z,45.72
2023-11-12T19:46:22.788Z,45.92
2023-11-12T19:48:53.278Z,49.13
2023-11-12T19:51:22.614Z,46.10
2023-11-12T19:53:50.395Z,43.08
2023-11-12T19:56:18.316Z,42.50
2023-11-12T19:58:47.321Z,42.17
2023-11-12T20:01:15.133Z,49.90
2023-11-12T20:03:42.896Z,41.97
2023-11-12T20:06:13.007Z,46.30
2023-11-12T20:08:42.049Z,44.88
2023-11-12T20:11:10.273Z,48.38
2023-11-12T20:13:40.025Z,44.05
2023-11-12T20:16:10.254Z,49.75
2023-11-12T20:18:38.452Z,48.47
2023-11-12T20:21:10.582Z,49.55
2023-11-12T20:23:39.076Z,49.53
2023-11-12T20:26:09.624Z,49.03
2023-11-12T20:28:38.111Z,51.63
2023-11-12T20:31:06.155Z,53.42
2023-11-12T20:33:33.776Z,54.88
2023-11-12T20:36:01.822Z,48.13
2023-11-12T20:38:29.514Z,49.50
2023-11-12T20:40:57.477Z,53.25
2023-11-12T20:43:26.763Z,47.63
2023-11-12T20:45:55.098Z,52.08
2023-11-12T20:48:23.216Z,55.17
2023-11-12T20:50:51.463Z,52.92
2023-11-12T20:53:19.255Z,47.95
2023-11-12T20:55:46.990Z,48.42
2023-11-12T20:58:15.161Z,57.92
2023-11-12T21:00:44.871Z,50.95
2023-11-12T21:03:12.622Z,49.40
2023-11-12T21:05:40.438Z,48.00
2023-11-12T21:08:08.092Z,55.58
2023-11-12T21:10:36.589Z,50.05
2023-11-12T21:13:04.491Z,54.92
2023-11-12T21:15:33.640Z,53.75
2023-11-12T21:18:04.227Z,52.95
2023-11-12T21:20:33.731Z,54.58
2023-11-12T21:23:01.367Z,55.50
2023-11-12T21:25:29.567Z,52.78
2023-11-12T21:27:57.516Z,55.78
2023-11-12T21:30:27.190Z,54.83
2023-11-12T21:32:58.379Z,51.85
2023-11-12T21:35:28.419Z,55.17
2023-11-12T21:37:56.015Z,56.20
2023-11-12T21:40:23.696Z,59.28
2023-11-12T21:42:52.621Z,57.00
2023-11-12T21:45:23.206Z,57.08
2023-11-12T21:47:51.109Z,63.13
2023-11-12T21:50:18.958Z,57.35
2023-11-12T21:52:48.014Z,61.42
2023-11-12T21:55:16.093Z,56.15
2023-11-12T21:57:44.329Z,62.33
2023-11-12T22:00:13.884Z,56.38
2023-11-12T22:02:42.990Z,52.30
2023-11-12T22:05:13.076Z,56.75
2023-11-12T22:07:41.039Z,54.22
2023-11-12T22:10:13.017Z,52.50
2023-11-12T22:12:40.917Z,64.22
2023-11-12T22:15:13.925Z,56.00
2023-11-12T22:17:42.460Z,54.10
2023-11-12T22:20:14.961Z,62.47
2023-11-12T22:22:43.629Z,58.28
2023-11-12T22:25:14.843Z,55.65
2023-11-12T22:27:44.368Z,60.72
2023-11-12T22:30:14.363Z,59.78
2023-11-12T22:32:42.028Z,63.38
2023-11-12T22:35:10.541Z,61.88
2023-11-12T22:37:38.354Z,61.70
2023-11-12T22:40:06.807Z,53.47
2023-11-12T22:42:36.443Z,57.00
2023-11-12T22:45:04.448Z,60.13
2023-11-12T22:47:32.696Z,59.17
2023-11-12T22:50:01.276Z,66.78
2023-11-12T22:52:28.952Z,57.78
2023-11-12T22:54:56.532Z,57.20
2023-11-12T22:57:24.634Z,69.82
2023-11-12T22:59:54.004Z,64.07
2023-11-12T23:02:22.296Z,62.95
2023-11-12T23:04:50.197Z,66.47
2023-11-12T23:07:18.929Z,66.82
2023-11-12T23:09:46.860Z,63.90
2023-11-12T23:12:17.521Z,66.38
2023-11-12T23:14:46.442Z,63.00
2023-11-12T23:17:17.254Z,68.97
2023-11-12T23:19:45.112Z,67.65
2023-11-12T23:22:15.694Z,65.00
2023-11-12T23:24:43.698Z,69.38
2023-11-12T23:27:11.494Z,71.90
2023-11-12T23:29:39.633Z,74.07
2023-11-12T23:32:09.956Z,69.03
2023-11-12T23:34:39.494Z,73.20
2023-11-12T23:37:08.572Z,68.82
2023-11-12T23:39:37.282Z,68.78
2023-11-12T23:42:05.351Z,79.50
2023-11-12T23:44:33.536Z,71.55
2023-11-12T23:47:01.221Z,72.38
2023-11-12T23:49:28.673Z,69.28
2023-11-12T23:51:58.360Z,73.35
2023-11-12T23:54:26.172Z,76.68
2023-11-12T23:56:55.052Z,77.70
2023-11-12T23:59:22.980Z,73.18
